createdAt,value
2019-04-14T00:00:22.655Z,51.8
2019-04-14T00:01:10.731Z,51.8
2019-04-14T00:02:01.547Z,51.8
2019-04-14T00:02:51.631Z,51.8
2019-04-14T00:03:39.749Z,51.8
2019-04-14T00:04:31.913Z,51.8
2019-04-14T00:05:23.184Z,51.8
2019-04-14T00:06:11.898Z,51.8
2019-04-14T00:07:03.580Z,51.8
2019-04-14T00:07:51.713Z,51.8
2019-04-14T00:08:42.052Z,51.8
2019-04-14T00:09:32.093Z,51.8
2019-04-14T00:10:22.521Z,51.7
2019-04-14T00:11:13.059Z,51.7
2019-04-14T00:12:09.338Z,51.7
2019-04-14T00:12:54.040Z,51.7
2019-04-14T00:13:43.972Z,51.7
2019-04-14T00:14:33.635Z,51.6
2019-04-14T00:15:58.753Z,51.7
2019-04-14T00:16:18.416Z,51.7
2019-04-14T00:17:09.173Z,51.6
2019-04-14T00:17:58.856Z,51.6
2019-04-14T00:18:48.963Z,51.6
2019-04-14T00:19:39.074Z,51.6
2019-04-14T00:20:27.117Z,51.6
2019-04-14T00:21:19.070Z,51.6
2019-04-14T00:22:09.351Z,51.6
2019-04-14T00:22:58.056Z,51.6
2019-04-14T00:23:48.510Z,51.6
2019-04-14T00:24:38.575Z,51.6
2019-04-14T00:25:28.516Z,51.6
2019-04-14T00:26:18.359Z,51.6
2019-04-14T00:27:10.548Z,51.6
2019-04-14T00:27:58.542Z,51.6
2019-04-14T00:28:49.572Z,51.6
2019-04-14T00:29:39.226Z,51.6
2019-04-14T00:30:29.952Z,51.5
2019-04-14T00:31:19.649Z,51.5
2019-04-14T00:32:07.877Z,51.5
2019-04-14T00:32:57.981Z,51.5
2019-04-14T00:33:48.511Z,51.5
2019-04-14T00:34:38.304Z,51.5
2019-04-14T00:35:27.670Z,51.5
2019-04-14T00:36:18.059Z,51.4
2019-04-14T00:37:08.294Z,51.4
2019-04-14T00:38:02.542Z,51.4
2019-04-14T00:38:49.951Z,51.4
2019-04-14T00:39:38.409Z,51.4
2019-04-14T00:40:35.126Z,51.4
2019-04-14T00:41:18.236Z,51.4
2019-04-14T00:42:19.030Z,51.4
2019-04-14T00:43:09.183Z,51.4
2019-04-14T00:43:59.686Z,51.4
2019-04-14T00:44:50.069Z,51.4
2019-04-14T00:46:06.394Z,51.4
2019-04-14T00:46:35.606Z,51.4
2019-04-14T00:47:19.960Z,51.4
2019-04-14T00:48:27.561Z,51.4
2019-04-14T00:48:58.876Z,51.4
2019-04-14T00:49:49.239Z,51.3
2019-04-14T00:50:38.977Z,51.4
2019-04-14T00:51:29.238Z,51.3
2019-04-14T00:52:18.860Z,51.3
2019-04-14T00:53:10.308Z,51.3
2019-04-14T00:54:00.720Z,51.3
2019-04-14T00:54:49.953Z,51.3
2019-04-14T00:55:39.777Z,51.3
2019-04-14T00:56:28.601Z,51.3
2019-04-14T00:57:20.610Z,51.3
2019-04-14T00:58:10.110Z,51.3
2019-04-14T00:58:59.208Z,51.3
2019-04-14T00:59:49.458Z,51.3
2019-04-14T01:00:41.293Z,51.3
2019-04-14T01:01:31.253Z,51.3
2019-04-14T01:02:21.067Z,51.3
2019-04-14T01:03:11.267Z,51.3
2019-04-14T01:03:59.325Z,51.3
2019-04-14T01:04:49.568Z,51.2
2019-04-14T01:05:41.742Z,51.3
2019-04-14T01:06:31.256Z,51.2
2019-04-14T01:07:21.579Z,51.2
2019-04-14T01:08:11.879Z,51.2
2019-04-14T01:09:00.397Z,51.2
2019-04-14T01:09:49.572Z,51.2
2019-04-14T01:10:41.092Z,51.2
2019-04-14T01:11:31.817Z,51.2
2019-04-14T01:12:23.421Z,51.1
2019-04-14T01:13:18.332Z,51.1
2019-04-14T01:14:02.067Z,51.1
2019-04-14T01:14:52.245Z,51.1
2019-04-14T01:16:29.740Z,51.1
2019-04-14T01:16:51.582Z,51.1
2019-04-14T01:17:40.017Z,51.1
2019-04-14T01:18:31.810Z,51.1
2019-04-14T01:19:20.393Z,51.1
2019-04-14T01:20:10.797Z,51.1
2019-04-14T01:21:02.384Z,51.1
2019-04-14T01:21:52.393Z,51.1
2019-04-14T01:22:40.416Z,51.1
2019-04-14T01:23:32.544Z,51.1
2019-04-14T01:24:21.373Z,51.1
2019-04-14T01:25:11.344Z,51
2019-04-14T01:26:01.189Z,51
2019-04-14T01:26:51.079Z,51.1
2019-04-14T01:27:40.549Z,51
2019-04-14T01:28:30.693Z,51
2019-04-14T01:29:20.922Z,51
2019-04-14T01:30:11.669Z,51
2019-04-14T01:31:01.656Z,50.9
2019-04-14T01:31:52.004Z,51
2019-04-14T01:32:43.554Z,51
2019-04-14T01:33:32.081Z,50.9
2019-04-14T01:34:22.233Z,50.9
2019-04-14T01:35:13.785Z,50.9
2019-04-14T01:36:03.830Z,50.9
2019-04-14T01:36:52.255Z,50.9
2019-04-14T01:37:42.318Z,50.9
2019-04-14T01:38:32.423Z,50.8
2019-04-14T01:39:22.651Z,50.8
2019-04-14T01:40:12.605Z,50.8
2019-04-14T01:41:02.668Z,50.9
2019-04-14T01:41:52.570Z,51.1
2019-04-14T01:42:43.945Z,51.3
2019-04-14T01:43:32.578Z,51.4
2019-04-14T01:44:22.799Z,51.6
2019-04-14T01:45:12.661Z,51.9
2019-04-14T01:46:39.563Z,52.1
2019-04-14T01:47:05.151Z,52.5
2019-04-14T01:47:53.299Z,52.6
2019-04-14T01:48:43.381Z,52.8
2019-04-14T01:49:33.264Z,53.1
2019-04-14T01:50:23.883Z,53.3
2019-04-14T01:51:12.055Z,53.6
2019-04-14T01:52:01.893Z,53.8
2019-04-14T01:52:54.361Z,54.1
2019-04-14T01:53:43.165Z,54.3
2019-04-14T01:54:32.321Z,54.5
2019-04-14T01:55:22.212Z,54.8
2019-04-14T01:56:12.824Z,55
2019-04-14T01:57:04.516Z,55.3
2019-04-14T01:57:52.962Z,55.6
2019-04-14T01:58:42.693Z,55.8
2019-04-14T01:59:34.578Z,56
2019-04-14T02:00:22.721Z,56.3
2019-04-14T02:01:12.488Z,56.5
2019-04-14T02:02:03.478Z,56.8
2019-04-14T02:02:51.384Z,57
2019-04-14T02:03:41.956Z,57.3
2019-04-14T02:04:33.376Z,57.5
2019-04-14T02:06:11.968Z,58
2019-04-14T02:07:04.312Z,58.3
2019-04-14T02:07:53.921Z,58.5
2019-04-14T02:08:44.215Z,58.8
2019-04-14T02:09:34.057Z,59
2019-04-14T02:10:23.835Z,59.2
2019-04-14T02:11:14.172Z,59.5
2019-04-14T02:12:03.733Z,59.7
2019-04-14T02:12:54.181Z,59.9
2019-04-14T02:13:44.037Z,60.2
2019-04-14T02:14:34.389Z,60.4
2019-04-14T02:15:24.396Z,60.5
2019-04-14T02:17:04.743Z,60.6
2019-04-14T02:17:33.282Z,61.1
2019-04-14T02:18:22.899Z,61.2
2019-04-14T02:19:13.639Z,61.3
2019-04-14T02:20:03.813Z,61.4
2019-04-14T02:20:53.469Z,61.6
2019-04-14T02:21:43.931Z,61.8
2019-04-14T02:22:33.408Z,61.8
2019-04-14T02:23:24.126Z,61.9
2019-04-14T02:24:13.741Z,62.1
2019-04-14T02:25:04.111Z,62.3
2019-04-14T02:25:55.638Z,62.4
2019-04-14T02:26:44.355Z,62.4
2019-04-14T02:27:33.850Z,62.6
2019-04-14T02:28:22.293Z,62.8
2019-04-14T02:29:12.625Z,62.8
2019-04-14T02:30:20.704Z,62.9
2019-04-14T02:43:12.393Z,63.9
2019-04-14T02:58:18.111Z,64.2
2019-04-14T03:12:24.300Z,64.1
2019-04-14T03:25:56.738Z,63.9
2019-04-14T03:55:15.873Z,63.6
2019-04-14T03:56:35.626Z,63.5
2019-04-14T03:57:32.946Z,63.6
2019-04-14T03:58:21.019Z,63.6
2019-04-14T03:59:06.247Z,63.5
2019-04-14T03:59:54.903Z,63.5
2019-04-14T04:00:46.446Z,63.5
2019-04-14T04:01:35.015Z,63.5
2019-04-14T04:02:25.193Z,63.5
2019-04-14T04:03:13.818Z,63.5
2019-04-14T04:04:05.816Z,63.4
2019-04-14T04:04:55.486Z,63.4
2019-04-14T04:05:47.738Z,63.4
2019-04-14T04:06:36.108Z,63.4
2019-04-14T04:07:26.165Z,63.4
2019-04-14T04:08:16.445Z,63.4
2019-04-14T04:09:08.283Z,63.4
2019-04-14T04:09:58.246Z,63.4
2019-04-14T04:10:46.256Z,63.4
2019-04-14T04:11:37.168Z,63.4
2019-04-14T04:12:27.735Z,63.4
2019-04-14T04:13:17.658Z,63.4
2019-04-14T04:14:05.852Z,63.4
2019-04-14T04:14:57.970Z,63.4
2019-04-14T04:15:45.960Z,63.4
2019-04-14T04:16:38.105Z,63.4
2019-04-14T04:17:27.807Z,63.3
2019-04-14T04:18:17.947Z,63.3
2019-04-14T04:19:25.317Z,63.3
2019-04-14T04:19:57.660Z,63.3
2019-04-14T04:20:48.201Z,63.3
2019-04-14T04:21:37.912Z,63.3
2019-04-14T04:22:28.138Z,63.3
2019-04-14T04:23:18.079Z,63.3
2019-04-14T04:24:06.625Z,63.3
2019-04-14T04:24:56.986Z,63.3
2019-04-14T04:25:48.580Z,63.3
2019-04-14T04:26:37.048Z,63.3
2019-04-14T04:27:27.057Z,63.2
2019-04-14T04:28:18.558Z,63.2
2019-04-14T04:29:09.109Z,63.2
2019-04-14T04:29:59.110Z,63.2
2019-04-14T04:30:47.449Z,63.2
2019-04-14T04:31:37.389Z,63.2
2019-04-14T04:32:28.016Z,63.2
2019-04-14T04:33:18.114Z,63.2
2019-04-14T04:34:07.594Z,63.1
2019-04-14T04:34:58.167Z,63.1
2019-04-14T04:35:49.970Z,63.1
2019-04-14T04:36:37.958Z,63.1
2019-04-14T04:37:28.376Z,63.1
2019-04-14T04:38:19.901Z,63.1
2019-04-14T04:39:08.735Z,63.1
2019-04-14T04:39:58.714Z,63.1
2019-04-14T04:40:49.078Z,63.1
2019-04-14T04:41:39.142Z,63.1
2019-04-14T04:42:27.046Z,63.1
2019-04-14T04:43:18.972Z,63.1
2019-04-14T04:44:11.464Z,63.1
2019-04-14T04:44:59.504Z,63.1
2019-04-14T04:45:47.898Z,63.1
2019-04-14T04:46:40.211Z,63
2019-04-14T04:47:29.417Z,63
2019-04-14T04:48:21.667Z,63
2019-04-14T04:49:36.343Z,63
2019-04-14T04:50:00.555Z,63
2019-04-14T04:50:50.104Z,63
2019-04-14T04:51:40.473Z,62.9
2019-04-14T04:52:30.076Z,62.9
2019-04-14T04:53:20.155Z,62.9
2019-04-14T04:54:10.770Z,62.9
2019-04-14T04:54:58.822Z,62.9
2019-04-14T04:55:50.552Z,62.9
2019-04-14T04:56:40.440Z,62.9
2019-04-14T04:57:30.353Z,62.9
2019-04-14T04:58:19.416Z,62.9
2019-04-14T04:59:10.747Z,62.9
2019-04-14T05:00:01.086Z,62.9
2019-04-14T05:01:03.465Z,62.9
2019-04-14T05:01:39.184Z,62.9
2019-04-14T05:02:31.434Z,62.9
2019-04-14T05:03:21.597Z,62.9
2019-04-14T05:04:11.067Z,62.8
2019-04-14T05:05:01.208Z,62.8
2019-04-14T05:05:49.909Z,62.8
2019-04-14T05:06:41.508Z,62.8
2019-04-14T05:07:29.495Z,62.8
2019-04-14T05:08:20.240Z,62.8
2019-04-14T05:09:10.434Z,62.8
2019-04-14T05:10:02.520Z,62.8
2019-04-14T05:10:50.015Z,62.8
2019-04-14T05:11:38.805Z,62.8
2019-04-14T05:12:31.086Z,62.8
2019-04-14T05:13:20.261Z,62.8
2019-04-14T05:14:12.964Z,62.8
2019-04-14T05:15:00.959Z,62.8
2019-04-14T05:15:53.170Z,62.8
2019-04-14T05:16:40.159Z,62.8
2019-04-14T05:17:32.449Z,62.8
2019-04-14T05:18:20.482Z,62.7
2019-04-14T05:19:45.348Z,62.7
2019-04-14T05:20:09.415Z,62.7
2019-04-14T05:20:59.497Z,62.7
2019-04-14T05:21:47.293Z,62.7
2019-04-14T05:22:39.649Z,62.7
2019-04-14T05:23:29.806Z,62.7
2019-04-14T05:24:18.425Z,62.6
2019-04-14T05:25:09.950Z,62.7
2019-04-14T05:25:58.651Z,62.6
2019-04-14T05:26:48.958Z,62.6
2019-04-14T05:27:38.647Z,62.6
2019-04-14T05:28:29.289Z,62.6
2019-04-14T05:29:18.867Z,62.6
2019-04-14T05:30:07.406Z,62.6
2019-04-14T05:30:59.417Z,62.6
2019-04-14T05:31:47.226Z,62.6
2019-04-14T05:32:39.009Z,62.6
2019-04-14T05:33:29.242Z,62.6
2019-04-14T05:34:17.817Z,62.6
2019-04-14T05:35:08.128Z,62.6
2019-04-14T05:35:57.983Z,62.5
2019-04-14T05:36:46.111Z,62.5
2019-04-14T05:37:38.311Z,62.5
2019-04-14T05:38:36.676Z,62.5
2019-04-14T05:39:19.865Z,62.5
2019-04-14T05:40:08.505Z,62.4
2019-04-14T05:40:58.571Z,62.5
2019-04-14T05:42:32.085Z,62.4
2019-04-14T05:42:53.979Z,62.4
2019-04-14T05:44:09.893Z,62.4
2019-04-14T05:44:34.031Z,62.4
2019-04-14T05:45:24.548Z,62.4
2019-04-14T05:46:14.621Z,62.4
2019-04-14T05:47:06.411Z,62.4
2019-04-14T05:47:56.395Z,62.4
2019-04-14T05:48:45.650Z,62.4
2019-04-14T05:50:01.634Z,62.4
2019-04-14T05:50:24.551Z,62.4
2019-04-14T05:51:14.313Z,62.4
2019-04-14T05:52:03.919Z,62.4
2019-04-14T05:52:53.999Z,62.4
2019-04-14T05:53:43.651Z,62.3
2019-04-14T05:54:36.007Z,62.3
2019-04-14T05:55:24.674Z,62.3
2019-04-14T05:56:14.834Z,62.3
2019-04-14T05:57:04.619Z,62.3
2019-04-14T05:57:54.806Z,62.3
2019-04-14T05:58:44.605Z,62.3
2019-04-14T05:59:35.509Z,62.3
2019-04-14T06:00:27.709Z,62.3
2019-04-14T06:01:14.357Z,62.3
2019-04-14T06:02:04.732Z,62.3
2019-04-14T06:02:55.676Z,62.3
2019-04-14T06:05:08.823Z,62.2
2019-04-14T06:05:52.643Z,62.2
2019-04-14T06:06:42.139Z,62.2
2019-04-14T06:07:32.203Z,62.2
2019-04-14T06:08:22.267Z,62.2
2019-04-14T06:09:12.598Z,62.2
2019-04-14T06:10:02.367Z,62.2
2019-04-14T06:10:52.446Z,62.1
2019-04-14T06:11:42.833Z,62.1
2019-04-14T06:12:33.100Z,62.1
2019-04-14T06:13:22.656Z,62.1
2019-04-14T06:14:12.471Z,62.1
2019-04-14T06:15:03.081Z,62.1
2019-04-14T06:15:53.058Z,62.1
2019-04-14T06:16:43.403Z,62.1
2019-04-14T06:17:32.953Z,62.1
2019-04-14T06:18:22.696Z,62.1
2019-04-14T06:19:13.308Z,62.1
2019-04-14T06:20:03.693Z,62.1
2019-04-14T06:20:53.439Z,62.1
2019-04-14T06:21:43.245Z,62
2019-04-14T06:22:33.308Z,62.1
2019-04-14T06:23:23.645Z,62
2019-04-14T06:24:13.727Z,62
2019-04-14T06:25:03.833Z,62
2019-04-14T06:25:53.800Z,62
2019-04-14T06:26:44.192Z,62
2019-04-14T06:27:34.195Z,61.9
2019-04-14T06:28:23.985Z,61.9
2019-04-14T06:29:14.037Z,61.9
2019-04-14T06:30:04.417Z,61.9
2019-04-14T06:30:53.918Z,61.9
2019-04-14T06:31:43.944Z,61.9
2019-04-14T06:32:34.552Z,61.9
2019-04-14T06:33:23.525Z,61.9
2019-04-14T06:34:13.852Z,61.9
2019-04-14T06:35:04.729Z,61.9
2019-04-14T06:35:54.260Z,61.9
2019-04-14T06:36:44.577Z,61.9
2019-04-14T06:37:33.920Z,61.9
2019-04-14T06:38:24.001Z,61.9
2019-04-14T06:39:14.572Z,61.8
2019-04-14T06:40:04.092Z,61.8
2019-04-14T06:40:55.189Z,61.8
2019-04-14T06:41:45.027Z,61.8
2019-04-14T06:42:34.787Z,61.8
2019-04-14T06:43:25.353Z,61.8
2019-04-14T06:44:14.678Z,61.8
2019-04-14T06:45:05.270Z,61.8
2019-04-14T06:45:55.262Z,61.8
2019-04-14T06:46:45.635Z,61.8
2019-04-14T06:47:35.087Z,61.8
2019-04-14T06:48:25.439Z,61.8
2019-04-14T06:49:15.781Z,61.8
2019-04-14T06:50:05.284Z,61.8
2019-04-14T06:50:55.615Z,61.7
2019-04-14T06:51:44.851Z,61.7
2019-04-14T06:52:35.476Z,61.7
2019-04-14T06:53:25.866Z,61.7
2019-04-14T06:54:15.866Z,61.7
2019-04-14T06:55:05.963Z,61.7
2019-04-14T06:55:57.588Z,61.7
2019-04-14T06:56:45.501Z,61.7
2019-04-14T06:57:35.668Z,61.6
2019-04-14T06:58:26.168Z,61.6
2019-04-14T06:59:15.713Z,61.6
2019-04-14T07:00:06.117Z,61.6
2019-04-14T07:00:56.085Z,61.6
2019-04-14T07:01:46.692Z,61.6
2019-04-14T07:02:36.479Z,61.6
2019-04-14T07:05:02.301Z,61.6
2019-04-14T07:05:52.323Z,61.6
2019-04-14T07:06:42.501Z,61.6
2019-04-14T07:07:32.428Z,61.5
2019-04-14T07:08:22.490Z,61.5
2019-04-14T07:09:12.080Z,61.5
2019-04-14T07:10:02.906Z,61.5
2019-04-14T07:10:52.663Z,61.5
2019-04-14T07:11:42.188Z,61.5
2019-04-14T07:12:32.784Z,61.5
2019-04-14T07:13:23.938Z,61.5
2019-04-14T07:14:11.788Z,61.5
2019-04-14T07:15:02.978Z,61.4
2019-04-14T07:15:53.325Z,61.4
2019-04-14T07:16:43.400Z,61.4
2019-04-14T07:17:33.475Z,61.4
2019-04-14T07:18:22.671Z,61.4
2019-04-14T07:19:13.587Z,61.4
2019-04-14T07:20:05.804Z,61.4
2019-04-14T07:20:53.465Z,61.4
2019-04-14T07:21:42.979Z,61.4
2019-04-14T07:22:33.507Z,61.4
2019-04-14T07:23:23.034Z,61.4
2019-04-14T07:24:13.107Z,61.4
2019-04-14T07:25:03.530Z,61.4
2019-04-14T07:25:53.742Z,61.3
2019-04-14T07:26:44.096Z,61.3
2019-04-14T07:27:32.852Z,61.3
2019-04-14T07:28:24.274Z,61.3
2019-04-14T07:29:17.157Z,61.3
2019-04-14T07:30:04.096Z,61.3
2019-04-14T07:30:54.374Z,61.3
2019-04-14T07:31:43.914Z,61.3
2019-04-14T07:32:34.492Z,61.3
2019-04-14T07:33:24.299Z,61.3
2019-04-14T07:34:14.379Z,61.3
2019-04-14T07:35:04.768Z,61.3
2019-04-14T07:35:54.496Z,61.3
2019-04-14T07:36:44.539Z,61.3
2019-04-14T07:37:34.917Z,61.2
2019-04-14T07:38:24.693Z,61.2
2019-04-14T07:39:14.739Z,61.2
2019-04-14T07:40:04.149Z,61.2
2019-04-14T07:40:55.217Z,61.1
2019-04-14T07:41:44.661Z,61.1
2019-04-14T07:42:34.990Z,61.1
2019-04-14T07:43:25.056Z,61.1
2019-04-14T07:44:18.169Z,61.1
2019-04-14T07:45:05.195Z,61.1
2019-04-14T07:45:55.535Z,61.1
2019-04-14T07:46:45.644Z,61.1
2019-04-14T07:47:35.655Z,61.1
2019-04-14T07:48:25.448Z,61.1
2019-04-14T07:49:15.210Z,61.1
2019-04-14T07:50:18.712Z,61.1
2019-04-14T07:50:55.873Z,61.1
2019-04-14T07:51:45.783Z,61.1
2019-04-14T07:52:34.992Z,61.1
2019-04-14T07:53:25.316Z,61.1
2019-04-14T07:54:15.869Z,61
2019-04-14T07:55:05.370Z,61
2019-04-14T07:55:56.005Z,61
2019-04-14T07:56:45.269Z,61
2019-04-14T07:57:35.806Z,61
2019-04-14T07:58:26.437Z,60.9
2019-04-14T07:59:16.217Z,60.9
2019-04-14T08:00:06.010Z,60.9
2019-04-14T08:00:56.063Z,60.9
2019-04-14T08:01:46.125Z,60.9
2019-04-14T08:02:35.638Z,60.9
2019-04-14T08:03:26.277Z,60.9
2019-04-14T08:04:16.605Z,60.9
2019-04-14T08:05:06.669Z,60.9
2019-04-14T08:05:56.437Z,60.9
2019-04-14T08:06:46.825Z,60.9
2019-04-14T08:07:36.272Z,60.9
2019-04-14T08:08:26.592Z,60.9
2019-04-14T08:09:17.213Z,60.9
2019-04-14T08:10:07.060Z,60.9
2019-04-14T08:10:57.074Z,60.9
2019-04-14T08:11:46.894Z,60.8
2019-04-14T08:12:38.472Z,60.8
2019-04-14T08:13:26.978Z,60.8
2019-04-14T08:14:17.317Z,60.8
2019-04-14T08:15:07.116Z,60.8
2019-04-14T08:15:56.934Z,60.8
2019-04-14T08:16:47.788Z,60.8
2019-04-14T08:17:37.066Z,60.7
2019-04-14T08:18:27.641Z,60.7
2019-04-14T08:19:17.674Z,60.7
2019-04-14T08:20:07.226Z,60.6
2019-04-14T08:20:58.082Z,60.6
2019-04-14T08:21:47.650Z,60.6
2019-04-14T08:22:37.709Z,60.6
2019-04-14T08:23:27.970Z,60.6
2019-04-14T08:24:17.529Z,60.6
2019-04-14T08:25:07.276Z,60.6
2019-04-14T08:25:58.413Z,60.6
2019-04-14T08:26:48.288Z,60.6
2019-04-14T08:27:38.543Z,60.6
2019-04-14T08:28:28.610Z,60.5
2019-04-14T08:29:18.424Z,60.5
2019-04-14T08:30:08.473Z,60.5
2019-04-14T08:30:58.871Z,60.5
2019-04-14T08:31:48.863Z,60.5
2019-04-14T08:32:38.955Z,60.5
2019-04-14T08:33:28.695Z,60.4
2019-04-14T08:34:19.048Z,60.4
2019-04-14T08:35:08.270Z,60.4
2019-04-14T08:35:59.176Z,60.4
2019-04-14T08:36:48.681Z,60.4
2019-04-14T08:37:38.450Z,60.4
2019-04-14T08:38:29.382Z,60.4
2019-04-14T08:39:19.113Z,60.4
2019-04-14T08:40:09.520Z,60.4
2019-04-14T08:40:58.683Z,60.4
2019-04-14T08:41:49.017Z,60.4
2019-04-14T08:42:39.360Z,60.3
2019-04-14T08:43:29.187Z,60.3
2019-04-14T08:44:19.210Z,60.3
2019-04-14T08:45:09.883Z,60.3
2019-04-14T08:45:59.090Z,60.3
2019-04-14T08:46:49.704Z,60.3
2019-04-14T08:47:39.527Z,60.3
2019-04-14T08:48:29.526Z,60.3
2019-04-14T08:49:20.159Z,60.3
2019-04-14T08:50:09.955Z,60.3
2019-04-14T08:50:59.979Z,60.3
2019-04-14T08:51:49.776Z,60.2
2019-04-14T08:52:40.115Z,60.2
2019-04-14T08:53:29.879Z,60.2
2019-04-14T08:54:20.232Z,60.2
2019-04-14T08:55:10.309Z,60.2
2019-04-14T08:56:00.087Z,60.1
2019-04-14T08:56:49.649Z,60.1
2019-04-14T08:57:40.506Z,60.1
2019-04-14T08:58:29.422Z,60.1
2019-04-14T08:59:20.091Z,60.1
2019-04-14T09:00:10.176Z,60.1
2019-04-14T09:01:00.457Z,60.1
2019-04-14T09:01:50.317Z,60.1
2019-04-14T09:02:40.569Z,60.1
2019-04-14T09:03:30.620Z,60.1
2019-04-14T09:04:20.391Z,60
2019-04-14T09:05:10.749Z,60
2019-04-14T09:06:00.531Z,60
2019-04-14T09:06:51.151Z,60
2019-04-14T09:07:40.911Z,60
2019-04-14T09:08:30.968Z,59.9
2019-04-14T09:09:21.347Z,59.9
2019-04-14T09:10:11.466Z,59.9
2019-04-14T09:11:01.152Z,59.9
2019-04-14T09:11:51.523Z,59.9
2019-04-14T09:12:41.033Z,59.9
2019-04-14T09:13:31.955Z,59.9
2019-04-14T09:14:21.693Z,59.9
2019-04-14T09:15:11.832Z,59.8
2019-04-14T09:16:01.099Z,59.8
2019-04-14T09:16:51.593Z,59.8
2019-04-14T09:17:41.661Z,59.8
2019-04-14T09:18:31.848Z,59.8
2019-04-14T09:19:22.128Z,59.8
2019-04-14T09:20:11.707Z,59.8
2019-04-14T09:21:01.377Z,59.8
2019-04-14T09:21:52.510Z,59.8
2019-04-14T09:22:42.360Z,59.7
2019-04-14T09:23:32.682Z,59.7
2019-04-14T09:24:21.910Z,59.7
2019-04-14T09:25:11.945Z,59.7
2019-04-14T09:26:02.287Z,59.7
2019-04-14T09:26:52.330Z,59.7
2019-04-14T09:27:42.387Z,59.6
2019-04-14T09:28:33.008Z,59.6
2019-04-14T09:29:22.808Z,59.6
2019-04-14T09:30:13.128Z,59.6
2019-04-14T09:31:02.650Z,59.6
2019-04-14T09:31:53.252Z,59.6
2019-04-14T09:32:43.071Z,59.6
2019-04-14T09:33:33.162Z,59.6
2019-04-14T09:34:23.159Z,59.6
2019-04-14T09:35:13.000Z,59.6
2019-04-14T09:36:03.009Z,59.6
2019-04-14T09:36:53.407Z,59.5
2019-04-14T09:37:43.721Z,59.5
2019-04-14T09:38:33.474Z,59.5
2019-04-14T09:39:23.296Z,59.5
2019-04-14T09:40:13.004Z,59.5
2019-04-14T09:41:03.356Z,59.4
2019-04-14T09:41:53.444Z,59.4
2019-04-14T09:42:43.244Z,59.4
2019-04-14T09:43:33.824Z,59.4
2019-04-14T09:44:23.614Z,59.4
2019-04-14T09:45:13.961Z,59.4
2019-04-14T09:46:04.286Z,59.4
2019-04-14T09:46:53.529Z,59.4
2019-04-14T09:47:43.914Z,59.4
2019-04-14T09:48:33.389Z,59.3
2019-04-14T09:49:23.707Z,59.3
2019-04-14T09:50:13.766Z,59.3
2019-04-14T09:51:08.569Z,59.3
2019-04-14T09:51:54.426Z,59.3
2019-04-14T09:52:44.261Z,59.3
2019-04-14T09:53:34.291Z,59.3
2019-04-14T09:54:24.603Z,59.3
2019-04-14T09:55:14.935Z,59.3
2019-04-14T09:56:05.025Z,59.3
2019-04-14T09:56:54.570Z,59.3
2019-04-14T09:57:44.970Z,59.2
2019-04-14T09:58:35.178Z,59.2
2019-04-14T09:59:25.005Z,59.2
2019-04-14T10:00:14.488Z,59.2
2019-04-14T10:01:05.148Z,59.1
2019-04-14T10:01:54.597Z,59.1
2019-04-14T10:02:44.970Z,59.1
2019-04-14T10:03:35.555Z,59.1
2019-04-14T10:06:02.481Z,59.1
2019-04-14T10:06:52.814Z,59.1
2019-04-14T10:07:42.578Z,59.1
2019-04-14T10:08:31.024Z,59.1
2019-04-14T10:09:22.463Z,59
2019-04-14T10:10:12.922Z,59
2019-04-14T10:11:02.477Z,59
2019-04-14T10:11:59.912Z,59
2019-04-14T10:12:42.942Z,59
2019-04-14T10:13:32.671Z,58.9
2019-04-14T10:14:22.182Z,59
2019-04-14T10:15:12.269Z,58.9
2019-04-14T10:16:02.315Z,58.9
2019-04-14T10:16:52.907Z,58.9
2019-04-14T10:17:42.186Z,58.9
2019-04-14T10:18:33.020Z,58.9
2019-04-14T10:19:22.800Z,58.9
2019-04-14T10:20:13.145Z,58.9
2019-04-14T10:21:03.192Z,58.9
2019-04-14T10:21:53.027Z,58.9
2019-04-14T10:22:42.789Z,58.8
2019-04-14T10:23:33.645Z,58.8
2019-04-14T10:24:22.894Z,58.8
2019-04-14T10:25:13.817Z,58.8
2019-04-14T10:26:03.847Z,58.8
2019-04-14T10:26:53.349Z,58.8
2019-04-14T10:27:44.055Z,58.8
2019-04-14T10:28:34.022Z,58.8
2019-04-14T10:29:23.838Z,58.8
2019-04-14T10:30:13.939Z,58.8
2019-04-14T10:31:03.940Z,58.8
2019-04-14T10:31:54.013Z,58.7
2019-04-14T10:32:43.510Z,58.7
2019-04-14T10:33:34.131Z,58.7
2019-04-14T10:34:23.631Z,58.7
2019-04-14T10:35:14.003Z,58.6
2019-04-14T10:36:04.136Z,58.6
2019-04-14T10:36:53.826Z,58.6
2019-04-14T10:41:04.706Z,58.5
2019-04-14T10:41:53.926Z,58.5
2019-04-14T10:42:44.790Z,58.5
2019-04-14T10:43:35.150Z,58.5
2019-04-14T10:44:24.382Z,58.5
2019-04-14T10:45:14.981Z,58.4
2019-04-14T10:46:05.093Z,58.4
2019-04-14T10:46:55.115Z,58.4
2019-04-14T10:47:44.887Z,58.4
2019-04-14T10:48:34.693Z,58.4
2019-04-14T10:49:25.044Z,58.4
2019-04-14T10:50:15.357Z,58.4
2019-04-14T10:51:05.684Z,58.4
2019-04-14T10:51:55.477Z,58.4
2019-04-14T10:52:44.985Z,58.4
2019-04-14T10:53:35.397Z,58.3
2019-04-14T10:54:25.482Z,58.3
2019-04-14T10:55:16.008Z,58.3
2019-04-14T10:56:05.793Z,58.3
2019-04-14T10:56:55.833Z,58.3
2019-04-14T10:57:45.911Z,58.3
2019-04-14T10:58:35.951Z,58.3
2019-04-14T10:59:26.345Z,58.3
2019-04-14T11:00:15.852Z,58.3
2019-04-14T11:01:05.888Z,58.2
2019-04-14T11:01:56.537Z,58.2
2019-04-14T11:02:45.778Z,58.2
2019-04-14T11:03:36.642Z,58.2
2019-04-14T11:04:26.375Z,58.2
2019-04-14T11:05:16.729Z,58.2
2019-04-14T11:06:06.247Z,58.1
2019-04-14T11:06:56.560Z,58.1
2019-04-14T11:07:46.709Z,58.1
2019-04-14T11:08:36.705Z,58.1
2019-04-14T11:09:26.484Z,58.1
2019-04-14T11:10:16.819Z,58.1
2019-04-14T11:11:07.149Z,58.1
2019-04-14T11:11:56.383Z,58.1
2019-04-14T11:12:46.714Z,58.1
2019-04-14T11:13:37.079Z,58
2019-04-14T11:14:26.624Z,58
2019-04-14T11:15:18.564Z,58
2019-04-14T11:16:07.248Z,58
2019-04-14T11:16:56.731Z,58
2019-04-14T11:17:47.633Z,58
2019-04-14T11:18:37.128Z,57.9
2019-04-14T11:19:27.773Z,57.9
2019-04-14T11:20:16.993Z,57.9
2019-04-14T11:21:07.643Z,57.9
2019-04-14T11:21:57.659Z,57.9
2019-04-14T11:22:47.450Z,57.9
2019-04-14T11:23:37.515Z,57.9
2019-04-14T11:24:27.680Z,57.9
2019-04-14T11:25:17.622Z,57.9
2019-04-14T11:26:07.528Z,57.8
2019-04-14T11:26:58.338Z,57.8
2019-04-14T11:27:48.377Z,57.8
2019-04-14T11:28:38.198Z,57.8
2019-04-14T11:29:28.488Z,57.8
2019-04-14T11:30:18.533Z,57.8
2019-04-14T11:31:08.098Z,57.8
2019-04-14T11:35:20.773Z,57.7
2019-04-14T11:36:08.727Z,57.7
2019-04-14T11:36:58.208Z,57.7
2019-04-14T11:37:48.296Z,57.7
2019-04-14T11:38:38.693Z,57.6
2019-04-14T11:39:28.700Z,57.6
2019-04-14T11:40:18.990Z,57.6
2019-04-14T11:41:09.374Z,57.6
2019-04-14T11:41:59.505Z,57.6
2019-04-14T11:42:56.435Z,57.6
2019-04-14T11:43:39.361Z,57.6
2019-04-14T11:44:29.100Z,57.6
2019-04-14T11:45:19.356Z,57.6
2019-04-14T11:46:09.547Z,57.6
2019-04-14T11:46:59.555Z,57.5
2019-04-14T11:47:49.582Z,57.5
2019-04-14T11:48:39.612Z,57.5
2019-04-14T11:49:29.934Z,57.5
2019-04-14T11:50:19.743Z,57.5
2019-04-14T11:51:09.507Z,57.4
2019-04-14T11:52:00.131Z,57.4
2019-04-14T11:52:50.210Z,57.4
2019-04-14T11:53:40.254Z,57.4
2019-04-14T11:54:30.064Z,57.4
2019-04-14T11:55:19.054Z,57.4
2019-04-14T11:56:10.549Z,57.4
2019-04-14T11:57:00.256Z,57.4
2019-04-14T11:57:50.130Z,57.4
2019-04-14T11:58:40.661Z,57.4
2019-04-14T11:59:29.861Z,57.4
2019-04-14T12:00:20.598Z,57.3
2019-04-14T12:01:10.512Z,57.3
2019-04-14T12:02:00.450Z,57.3
2019-04-14T12:02:50.406Z,57.3
2019-04-14T12:03:40.746Z,57.3
2019-04-14T12:06:01.803Z,57.3
2019-04-14T12:06:53.095Z,57.3
2019-04-14T12:07:56.238Z,57.3
2019-04-14T12:08:32.654Z,57.3
2019-04-14T12:09:22.215Z,57.2
2019-04-14T12:10:12.576Z,57.2
2019-04-14T12:11:02.872Z,57.2
2019-04-14T12:11:52.975Z,57.2
2019-04-14T12:12:42.275Z,57.1
2019-04-14T12:13:32.073Z,57.1
2019-04-14T12:14:22.846Z,57.1
2019-04-14T12:15:20.055Z,57.1
2019-04-14T12:16:02.530Z,57.1
2019-04-14T12:16:53.005Z,57.1
2019-04-14T12:17:42.747Z,57.1
2019-04-14T12:18:33.214Z,57.1
2019-04-14T12:19:23.268Z,57.1
2019-04-14T12:20:13.000Z,57.1
2019-04-14T12:21:03.785Z,57.1
2019-04-14T12:21:53.172Z,57
2019-04-14T12:22:42.724Z,57
2019-04-14T12:23:33.064Z,57
2019-04-14T12:24:23.340Z,57
2019-04-14T12:25:13.987Z,57
2019-04-14T12:26:23.787Z,56.9
2019-04-14T12:26:53.470Z,56.9
2019-04-14T12:27:48.768Z,56.9
2019-04-14T12:28:38.220Z,56.9
2019-04-14T12:29:43.244Z,56.9
2019-04-14T12:30:18.532Z,56.9
2019-04-14T12:31:08.628Z,56.9
2019-04-14T12:32:13.062Z,56.9
2019-04-14T12:32:44.002Z,56.9
2019-04-14T12:33:34.444Z,56.8
2019-04-14T12:34:38.656Z,56.9
2019-04-14T12:35:13.917Z,56.8
2019-04-14T12:36:04.514Z,56.8
2019-04-14T12:36:54.811Z,56.8
2019-04-14T12:37:44.849Z,56.8
2019-04-14T12:38:34.475Z,56.8
2019-04-14T12:39:23.662Z,56.8
2019-04-14T12:40:13.744Z,56.8
2019-04-14T12:41:12.555Z,56.8
2019-04-14T12:41:54.976Z,56.8
2019-04-14T12:42:44.434Z,56.8
2019-04-14T12:43:34.772Z,56.8
2019-04-14T12:44:25.128Z,56.7
2019-04-14T12:45:15.861Z,56.7